Terminal Aerodrome Forecast
Issued by NWS

Home | Current Version | Previous Version | Text Only | Print | Product List | Glossary On
Versions: 1 2 3 4 5 6 7 8 9 10 11 12 13 14 15 16 17
258
FTUS41 KGYX 251120
TAFAUG
TAF
KAUG 251120Z 2512/2612 VRB04KT P6SM SCT120 BKN200
     FM251600 17006KT P6SM SCT100 BKN200
     FM252300 14004KT P6SM -SHRA SCT020 BKN050 OVC080
     FM260200 VRB03KT 4SM SHRA BR BKN012 OVC025
     FM260400 00000KT 1/2SM FG OVC005=

USA.gov is the U.S. government's official web portal to all federal, state and local government web resources and services.